createdAt,value
2019-04-07T00:00:44.019Z,8.39
2019-04-07T00:05:49.509Z,8.39
2019-04-07T00:10:55.072Z,8.45
2019-04-07T00:16:02.492Z,8.45
2019-04-07T00:21:08.622Z,8.50
2019-04-07T00:26:14.367Z,8.47
2019-04-07T00:31:20.465Z,8.39
2019-04-07T00:36:26.645Z,8.40
2019-04-07T00:41:32.131Z,8.30
2019-04-07T00:46:37.665Z,8.13
2019-04-07T00:51:43.944Z,8.06
2019-04-07T00:56:49.248Z,8.01
2019-04-07T01:01:55.274Z,8.05
2019-04-07T01:07:00.868Z,7.91
2019-04-07T01:12:07.217Z,7.90
2019-04-07T01:17:13.836Z,7.84
2019-04-07T01:22:19.755Z,7.78
2019-04-07T01:27:27.023Z,7.81
2019-04-07T01:32:32.377Z,7.82
2019-04-07T01:37:38.054Z,7.60
2019-04-07T01:43:11.715Z,7.56
2019-04-07T01:48:39.659Z,7.52
2019-04-07T01:53:52.193Z,7.46
2019-04-07T01:59:22.096Z,7.39
2019-04-07T02:05:01.724Z,7.46
2019-04-07T02:10:24.014Z,7.38
2019-04-07T02:15:37.285Z,7.41
2019-04-07T02:21:05.394Z,7.38
2019-04-07T02:26:16.612Z,7.34
2019-04-07T02:31:40.971Z,7.31
2019-04-07T02:37:08.171Z,7.17
2019-04-07T02:42:42.810Z,7.15
2019-04-07T02:48:16.501Z,7.17
2019-04-07T02:53:34.888Z,7.05
2019-04-07T02:58:59.388Z,6.95
2019-04-07T03:04:18.930Z,6.92
2019-04-07T03:09:48.221Z,6.92
2019-04-07T03:15:27.708Z,6.80
2019-04-07T03:21:02.418Z,6.69
2019-04-07T03:26:29.685Z,6.58
2019-04-07T03:32:00.507Z,6.53
2019-04-07T03:37:34.441Z,6.44
2019-04-07T03:42:51.160Z,6.48
2019-04-07T03:48:10.461Z,6.44
2019-04-07T03:53:32.364Z,6.40
2019-04-07T03:58:59.937Z,6.42
2019-04-07T04:04:15.786Z,6.36
2019-04-07T04:09:28.418Z,6.33
2019-04-07T04:14:40.345Z,6.38
2019-04-07T04:19:46.759Z,6.16
2019-04-07T04:24:53.431Z,6.18
2019-04-07T04:29:58.815Z,6.12
2019-04-07T04:35:04.589Z,6.14
2019-04-07T04:40:13.839Z,6.02
2019-04-07T04:45:19.711Z,5.94
2019-04-07T04:50:28.317Z,5.97
2019-04-07T04:59:52.717Z,6.12
2019-04-07T05:04:58.119Z,6.12
2019-04-07T05:10:03.360Z,5.99
2019-04-07T05:15:09.644Z,5.95
2019-04-07T05:20:15.230Z,6.05
2019-04-07T05:25:20.690Z,6.15
2019-04-07T05:30:26.213Z,6.04
2019-04-07T05:35:31.533Z,6.21
2019-04-07T05:40:36.875Z,6.29
2019-04-07T05:45:42.182Z,6.46
2019-04-07T05:50:48.723Z,6.67
2019-04-07T05:55:55.383Z,6.92
2019-04-07T06:01:01.840Z,7.05
2019-04-07T06:06:07.040Z,7.45
2019-04-07T06:11:13.598Z,7.86
2019-04-07T06:16:20.950Z,8.20
2019-04-07T06:21:26.218Z,8.53
2019-04-07T06:26:31.462Z,8.80
2019-04-07T06:31:36.822Z,9.11
2019-04-07T06:36:43.123Z,9.28
2019-04-07T06:41:48.904Z,9.76
2019-04-07T06:47:12.785Z,10.15
2019-04-07T06:52:27.098Z,10.69
2019-04-07T06:57:46.600Z,11.20
2019-04-07T07:03:02.340Z,11.78
2019-04-07T07:08:15.044Z,12.14
2019-04-07T07:13:44.701Z,12.52
2019-04-07T07:19:10.681Z,12.83
2019-04-07T07:24:22.491Z,13.16
2019-04-07T07:29:26.532Z,13.30
2019-04-07T07:34:31.644Z,13.55
2019-04-07T07:39:41.840Z,13.94
2019-04-07T07:44:44.742Z,14.18
2019-04-07T07:49:50.832Z,14.18
2019-04-07T07:54:59.782Z,14.41
2019-04-07T08:00:06.112Z,14.44
2019-04-07T08:05:11.433Z,14.54
2019-04-07T08:10:17.158Z,14.68
2019-04-07T08:15:25.474Z,14.87
2019-04-07T08:20:29.692Z,15.05
2019-04-07T08:25:35.744Z,15.05
2019-04-07T08:30:46.497Z,14.73
2019-04-07T08:35:51.211Z,15.24
2019-04-07T08:40:57.604Z,15.25
2019-04-07T08:46:04.779Z,15.45
2019-04-07T08:51:11.272Z,15.46
2019-04-07T08:56:17.824Z,15.25
2019-04-07T09:01:23.820Z,15.59
2019-04-07T09:06:29.616Z,15.47
2019-04-07T09:11:39.046Z,15.53
2019-04-07T09:17:01.441Z,15.74
2019-04-07T09:22:31.592Z,16.04
2019-04-07T09:27:59.183Z,16.33
2019-04-07T09:33:24.230Z,16.32
2019-04-07T09:38:42.166Z,16.61
2019-04-07T09:44:06.545Z,16.79
2019-04-07T09:49:31.003Z,16.81
2019-04-07T09:54:51.818Z,17.03
2019-04-07T10:00:12.716Z,17.30
2019-04-07T10:05:27.146Z,17.06
2019-04-07T10:10:55.978Z,17.52
2019-04-07T10:16:33.869Z,17.67
2019-04-07T10:22:04.366Z,17.77
2019-04-07T10:27:18.921Z,18.13
2019-04-07T10:32:44.868Z,17.89
2019-04-07T10:38:07.550Z,18.22
2019-04-07T10:43:35.004Z,18.15
2019-04-07T10:49:00.237Z,18.38
2019-04-07T10:54:25.083Z,18.56
2019-04-07T10:59:51.248Z,18.83
2019-04-07T11:05:34.480Z,18.94
2019-04-07T11:11:12.282Z,19.05
2019-04-07T11:16:31.789Z,19.59
2019-04-07T11:21:56.645Z,19.70
2019-04-07T11:27:35.358Z,19.57
2019-04-07T11:32:48.125Z,19.89
2019-04-07T11:38:11.576Z,20.45
2019-04-07T11:43:54.829Z,20.78
2019-04-07T11:49:13.553Z,21.37
2019-04-07T11:54:40.480Z,22.25
2019-04-07T12:00:18.338Z,22.56
2019-04-07T12:05:33.629Z,23.41
2019-04-07T12:11:02.288Z,24.11
2019-04-07T12:16:22.055Z,24.86
2019-04-07T12:21:38.098Z,24.59
2019-04-07T12:26:53.804Z,25.08
2019-04-07T12:32:17.135Z,26.28
2019-04-07T12:37:50.616Z,26.40
2019-04-07T12:43:27.255Z,27.82
2019-04-07T12:48:59.888Z,29.04
2019-04-07T12:54:27.749Z,29.37
2019-04-07T12:59:52.770Z,29.51
2019-04-07T13:05:09.055Z,29.42
2019-04-07T13:10:25.437Z,29.84
2019-04-07T13:16:09.141Z,29.74
2019-04-07T13:21:34.297Z,29.15
2019-04-07T13:27:06.220Z,30.35
2019-04-07T13:32:41.544Z,31.91
2019-04-07T13:38:18.618Z,32.78
2019-04-07T13:43:47.348Z,31.72
2019-04-07T13:49:11.818Z,30.49
2019-04-07T13:54:34.981Z,28.45
2019-04-07T14:00:02.350Z,27.04
2019-04-07T14:05:27.385Z,25.71
2019-04-07T14:10:58.303Z,24.85
2019-04-07T14:16:26.916Z,24.06
2019-04-07T14:21:50.461Z,23.68
2019-04-07T14:27:04.383Z,23.45
2019-04-07T14:32:27.481Z,22.93
2019-04-07T14:37:44.792Z,23.34
2019-04-07T14:42:57.193Z,23.46
2019-04-07T14:48:11.594Z,22.87
2019-04-07T14:53:36.604Z,22.25
2019-04-07T14:58:51.105Z,21.92
2019-04-07T15:03:55.699Z,22.39
2019-04-07T15:09:10.194Z,22.65
2019-04-07T15:14:15.648Z,22.33
2019-04-07T15:19:21.170Z,22.18
2019-04-07T15:24:27.095Z,22.14
2019-04-07T15:29:34.305Z,21.96
2019-04-07T15:34:42.492Z,21.39
2019-04-07T15:39:50.590Z,21.10
2019-04-07T15:44:56.094Z,20.96
2019-04-07T15:50:01.510Z,20.98
2019-04-07T15:55:08.368Z,20.83
2019-04-07T16:00:15.355Z,20.43
2019-04-07T16:05:21.509Z,20.21
2019-04-07T16:10:35.999Z,20.36
2019-04-07T16:15:45.326Z,20.34
2019-04-07T16:20:51.781Z,20.02
2019-04-07T16:25:58.355Z,19.86
2019-04-07T16:31:06.519Z,19.75
2019-04-07T16:36:13.204Z,19.63
2019-04-07T16:41:18.573Z,19.57
2019-04-07T16:46:25.019Z,19.27
2019-04-07T16:51:33.637Z,19.09
2019-04-07T16:56:38.016Z,18.79
2019-04-07T17:01:43.572Z,18.88
2019-04-07T17:06:59.529Z,18.62
2019-04-07T17:11:56.750Z,18.62
2019-04-07T17:17:02.001Z,18.57
2019-04-07T17:22:07.370Z,18.46
2019-04-07T17:27:13.365Z,18.45
2019-04-07T17:32:18.858Z,18.43
2019-04-07T17:37:28.178Z,18.31
2019-04-07T17:42:32.286Z,18.24
2019-04-07T17:48:03.716Z,18.22
2019-04-07T17:53:29.758Z,18.03
2019-04-07T17:58:59.940Z,17.98
2019-04-07T18:04:43.910Z,17.93
2019-04-07T18:10:17.581Z,17.80
2019-04-07T18:15:41.757Z,17.72
2019-04-07T18:21:11.726Z,17.67
2019-04-07T18:26:25.151Z,17.50
2019-04-07T18:31:43.615Z,17.38
2019-04-07T18:37:07.173Z,17.24
2019-04-07T18:42:22.978Z,17.16
2019-04-07T18:47:48.315Z,17.02
2019-04-07T18:53:14.701Z,16.91
2019-04-07T18:58:31.258Z,16.82
2019-04-07T19:03:56.050Z,16.66
2019-04-07T19:09:18.900Z,16.58
2019-04-07T19:14:44.563Z,16.49
2019-04-07T19:20:05.318Z,16.41
2019-04-07T19:25:35.532Z,16.29
2019-04-07T19:31:06.647Z,16.33
2019-04-07T19:36:29.369Z,16.29
2019-04-07T19:41:46.913Z,16.25
2019-04-07T19:47:02.132Z,16.14
2019-04-07T19:52:41.556Z,16.04
2019-04-07T19:57:59.996Z,15.98
2019-04-07T20:03:28.389Z,15.81
2019-04-07T20:08:44.215Z,15.74
2019-04-07T20:14:13.694Z,15.68
2019-04-07T20:19:45.600Z,15.59
2019-04-07T20:25:13.278Z,15.58
2019-04-07T20:30:31.791Z,15.55
2019-04-07T20:35:55.549Z,15.54
2019-04-07T20:41:20.248Z,15.48
2019-04-07T20:46:57.040Z,15.44
2019-04-07T20:52:20.079Z,15.40
2019-04-07T20:57:43.267Z,15.40
2019-04-07T21:03:18.158Z,15.31
2019-04-07T21:08:41.647Z,15.29
2019-04-07T21:14:09.325Z,15.19
2019-04-07T21:19:51.926Z,15.16
2019-04-07T21:25:25.093Z,15.15
2019-04-07T21:30:46.804Z,15.13
2019-04-07T21:36:20.574Z,15.09
2019-04-07T21:41:54.896Z,15.09
2019-04-07T21:47:38.546Z,15.09
2019-04-07T21:53:10.149Z,15.09
2019-04-07T21:58:40.486Z,15.08
2019-04-07T22:04:11.523Z,15.04
2019-04-07T22:09:21.291Z,15.05
2019-04-07T22:14:27.058Z,14.97
2019-04-07T22:19:33.957Z,14.96
2019-04-07T22:24:40.648Z,14.93
2019-04-07T22:29:47.105Z,14.93
2019-04-07T22:34:54.690Z,14.96
2019-04-07T22:40:02.131Z,14.91
2019-04-07T22:45:08.198Z,14.89
2019-04-07T22:50:14.988Z,14.80
2019-04-07T22:55:27.033Z,14.72
2019-04-07T23:00:32.553Z,14.70
2019-04-07T23:05:37.879Z,14.73
2019-04-07T23:10:44.279Z,14.61
2019-04-07T23:15:50.776Z,14.59
2019-04-07T23:20:56.083Z,14.54
2019-04-07T23:26:02.055Z,14.45
2019-04-07T23:31:07.881Z,14.30
2019-04-07T23:36:13.727Z,14.26
2019-04-07T23:41:18.976Z,14.15
2019-04-07T23:46:27.151Z,14.00
2019-04-07T23:51:32.253Z,13.94
2019-04-07T23:56:38.044Z,13.89
